sensor_id;sensor_type;location;lat;lon;timestamp;P1;durP1;ratioP1;P2;durP2;ratioP2
23404;SDS011;11875;49.356;2.718;2022-09-09T00:02:21;7.75;;;1.73;;
23404;SDS011;11875;49.356;2.718;2022-09-09T00:04:59;6.13;;;1.42;;
23404;SDS011;11875;49.356;2.718;2022-09-09T00:13:05;10.65;;;2.10;;
23404;SDS011;11875;49.356;2.718;2022-09-09T00:21:13;4.30;;;1.40;;
23404;SDS011;11875;49.356;2.718;2022-09-09T00:23:44;6.85;;;1.90;;
23404;SDS011;11875;49.356;2.718;2022-09-09T00:26:22;9.75;;;1.85;;
23404;SDS011;11875;49.356;2.718;2022-09-09T00:29:09;11.70;;;2.58;;
23404;SDS011;11875;49.356;2.718;2022-09-09T00:31:45;8.63;;;1.60;;
23404;SDS011;11875;49.356;2.718;2022-09-09T00:34:12;9.45;;;1.92;;
23404;SDS011;11875;49.356;2.718;2022-09-09T00:36:41;6.72;;;1.60;;
23404;SDS011;11875;49.356;2.718;2022-09-09T00:39:10;9.00;;;1.75;;
23404;SDS011;11875;49.356;2.718;2022-09-09T00:42:33;7.13;;;1.88;;
23404;SDS011;11875;49.356;2.718;2022-09-09T00:44:39;6.75;;;1.50;;
23404;SDS011;11875;49.356;2.718;2022-09-09T00:47:34;4.05;;;1.58;;
23404;SDS011;11875;49.356;2.718;2022-09-09T00:58:20;7.38;;;1.73;;
23404;SDS011;11875;49.356;2.718;2022-09-09T01:00:47;13.73;;;2.13;;
23404;SDS011;11875;49.356;2.718;2022-09-09T01:06:19;12.55;;;1.92;;
23404;SDS011;11875;49.356;2.718;2022-09-09T01:17:45;9.00;;;2.03;;
23404;SDS011;11875;49.356;2.718;2022-09-09T01:28:26;6.45;;;1.55;;
23404;SDS011;11875;49.356;2.718;2022-09-09T01:30:53;6.65;;;1.98;;
23404;SDS011;11875;49.356;2.718;2022-09-09T01:33:20;8.32;;;1.90;;
23404;SDS011;11875;49.356;2.718;2022-09-09T01:35:50;8.38;;;1.80;;
23404;SDS011;11875;49.356;2.718;2022-09-09T01:38:21;7.32;;;1.92;;
23404;SDS011;11875;49.356;2.718;2022-09-09T01:40:48;8.00;;;1.60;;
23404;SDS011;11875;49.356;2.718;2022-09-09T01:43:17;8.00;;;1.88;;
23404;SDS011;11875;49.356;2.718;2022-09-09T01:45:47;9.60;;;2.58;;
23404;SDS011;11875;49.356;2.718;2022-09-09T01:48:16;11.00;;;2.30;;
23404;SDS011;11875;49.356;2.718;2022-09-09T01:50:42;10.75;;;2.17;;
23404;SDS011;11875;49.356;2.718;2022-09-09T01:53:08;12.30;;;1.95;;
23404;SDS011;11875;49.356;2.718;2022-09-09T01:55:38;10.07;;;2.45;;
23404;SDS011;11875;49.356;2.718;2022-09-09T02:00:42;7.07;;;1.55;;
23404;SDS011;11875;49.356;2.718;2022-09-09T02:03:23;9.70;;;2.03;;
23404;SDS011;11875;49.356;2.718;2022-09-09T02:05:55;9.57;;;2.25;;
23404;SDS011;11875;49.356;2.718;2022-09-09T02:08:35;11.35;;;2.03;;
23404;SDS011;11875;49.356;2.718;2022-09-09T02:11:14;7.38;;;1.75;;
23404;SDS011;11875;49.356;2.718;2022-09-09T02:13:41;10.30;;;2.13;;
23404;SDS011;11875;49.356;2.718;2022-09-09T02:21:31;11.77;;;2.15;;
23404;SDS011;11875;49.356;2.718;2022-09-09T02:24:00;6.03;;;1.70;;
23404;SDS011;11875;49.356;2.718;2022-09-09T02:26:29;8.45;;;2.03;;
23404;SDS011;11875;49.356;2.718;2022-09-09T02:28:59;9.43;;;2.10;;
23404;SDS011;11875;49.356;2.718;2022-09-09T02:31:27;8.40;;;2.03;;
23404;SDS011;11875;49.356;2.718;2022-09-09T02:33:57;4.85;;;2.20;;
23404;SDS011;11875;49.356;2.718;2022-09-09T02:36:26;14.50;;;2.10;;
23404;SDS011;11875;49.356;2.718;2022-09-09T02:38:54;11.27;;;2.00;;
23404;SDS011;11875;49.356;2.718;2022-09-09T02:41:23;10.35;;;2.42;;
23404;SDS011;11875;49.356;2.718;2022-09-09T02:43:56;12.90;;;2.40;;
23404;SDS011;11875;49.356;2.718;2022-09-09T02:46:24;11.60;;;2.00;;
23404;SDS011;11875;49.356;2.718;2022-09-09T02:56:53;11.25;;;1.92;;
23404;SDS011;11875;49.356;2.718;2022-09-09T02:59:21;8.10;;;1.73;;
23404;SDS011;11875;49.356;2.718;2022-09-09T03:01:47;8.05;;;2.50;;
23404;SDS011;11875;49.356;2.718;2022-09-09T03:04:12;8.32;;;1.95;;
23404;SDS011;11875;49.356;2.718;2022-09-09T03:06:38;9.70;;;2.08;;
23404;SDS011;11875;49.356;2.718;2022-09-09T03:09:04;6.45;;;1.65;;
23404;SDS011;11875;49.356;2.718;2022-09-09T03:11:30;13.55;;;2.03;;
23404;SDS011;11875;49.356;2.718;2022-09-09T03:13:56;10.95;;;2.08;;
23404;SDS011;11875;49.356;2.718;2022-09-09T03:16:22;8.40;;;2.15;;
23404;SDS011;11875;49.356;2.718;2022-09-09T03:18:48;8.43;;;2.00;;
23404;SDS011;11875;49.356;2.718;2022-09-09T03:21:14;10.98;;;2.50;;
23404;SDS011;11875;49.356;2.718;2022-09-09T03:23:39;5.85;;;1.77;;
23404;SDS011;11875;49.356;2.718;2022-09-09T03:26:05;8.88;;;2.60;;
23404;SDS011;11875;49.356;2.718;2022-09-09T03:28:32;10.38;;;2.00;;
23404;SDS011;11875;49.356;2.718;2022-09-09T03:31:01;8.77;;;1.98;;
23404;SDS011;11875;49.356;2.718;2022-09-09T03:33:27;10.13;;;2.05;;
23404;SDS011;11875;49.356;2.718;2022-09-09T03:35:54;9.40;;;2.05;;
23404;SDS011;11875;49.356;2.718;2022-09-09T03:38:22;12.55;;;2.15;;
23404;SDS011;11875;49.356;2.718;2022-09-09T03:40:51;8.60;;;1.92;;
23404;SDS011;11875;49.356;2.718;2022-09-09T03:43:20;11.30;;;2.05;;
23404;SDS011;11875;49.356;2.718;2022-09-09T03:45:47;10.82;;;2.22;;
23404;SDS011;11875;49.356;2.718;2022-09-09T03:48:13;8.00;;;1.95;;
23404;SDS011;11875;49.356;2.718;2022-09-09T03:50:44;15.73;;;1.95;;
23404;SDS011;11875;49.356;2.718;2022-09-09T03:53:14;10.23;;;1.83;;
23404;SDS011;11875;49.356;2.718;2022-09-09T03:55:44;11.85;;;2.03;;
23404;SDS011;11875;49.356;2.718;2022-09-09T03:58:16;7.88;;;1.92;;
23404;SDS011;11875;49.356;2.718;2022-09-09T04:00:43;12.52;;;2.50;;
23404;SDS011;11875;49.356;2.718;2022-09-09T04:03:25;9.13;;;2.38;;
23404;SDS011;11875;49.356;2.718;2022-09-09T04:05:51;8.60;;;2.00;;
23404;SDS011;11875;49.356;2.718;2022-09-09T04:08:18;9.15;;;2.17;;
23404;SDS011;11875;49.356;2.718;2022-09-09T04:10:48;8.48;;;2.30;;
23404;SDS011;11875;49.356;2.718;2022-09-09T04:13:15;5.03;;;1.58;;
23404;SDS011;11875;49.356;2.718;2022-09-09T04:15:43;11.15;;;2.90;;
23404;SDS011;11875;49.356;2.718;2022-09-09T04:18:14;11.32;;;2.38;;
23404;SDS011;11875;49.356;2.718;2022-09-09T04:20:40;9.38;;;2.03;;
23404;SDS011;11875;49.356;2.718;2022-09-09T04:23:05;13.02;;;2.88;;
23404;SDS011;11875;49.356;2.718;2022-09-09T04:25:31;10.10;;;2.00;;
23404;SDS011;11875;49.356;2.718;2022-09-09T04:27:57;14.45;;;2.17;;
23404;SDS011;11875;49.356;2.718;2022-09-09T04:30:23;7.40;;;2.25;;
23404;SDS011;11875;49.356;2.718;2022-09-09T04:32:50;6.80;;;1.90;;
23404;SDS011;11875;49.356;2.718;2022-09-09T04:35:16;10.20;;;2.17;;
23404;SDS011;11875;49.356;2.718;2022-09-09T04:37:42;12.90;;;2.88;;
23404;SDS011;11875;49.356;2.718;2022-09-09T04:40:08;7.68;;;2.25;;
23404;SDS011;11875;49.356;2.718;2022-09-09T04:42:37;11.32;;;2.35;;
23404;SDS011;11875;49.356;2.718;2022-09-09T04:45:03;9.13;;;2.45;;
23404;SDS011;11875;49.356;2.718;2022-09-09T04:47:29;4.75;;;1.98;;
23404;SDS011;11875;49.356;2.718;2022-09-09T04:49:55;10.82;;;2.35;;
23404;SDS011;11875;49.356;2.718;2022-09-09T04:52:21;14.70;;;2.35;;
23404;SDS011;11875;49.356;2.718;2022-09-09T04:54:47;9.25;;;2.42;;
23404;SDS011;11875;49.356;2.718;2022-09-09T04:57:13;13.23;;;2.83;;
23404;SDS011;11875;49.356;2.718;2022-09-09T04:59:38;11.15;;;2.38;;
23404;SDS011;11875;49.356;2.718;2022-09-09T05:02:04;12.27;;;2.22;;
23404;SDS011;11875;49.356;2.718;2022-09-09T05:04:30;14.18;;;2.50;;
23404;SDS011;11875;49.356;2.718;2022-09-09T05:06:56;16.25;;;3.25;;
23404;SDS011;11875;49.356;2.718;2022-09-09T05:09:22;12.40;;;2.58;;
23404;SDS011;11875;49.356;2.718;2022-09-09T05:11:47;12.80;;;2.55;;
23404;SDS011;11875;49.356;2.718;2022-09-09T05:14:13;11.63;;;1.80;;
23404;SDS011;11875;49.356;2.718;2022-09-09T05:16:39;8.43;;;2.28;;
23404;SDS011;11875;49.356;2.718;2022-09-09T05:19:05;11.98;;;2.42;;
23404;SDS011;11875;49.356;2.718;2022-09-09T05:21:33;14.43;;;2.65;;
23404;SDS011;11875;49.356;2.718;2022-09-09T05:23:58;11.70;;;2.40;;
23404;SDS011;11875;49.356;2.718;2022-09-09T05:26:25;19.23;;;3.78;;
23404;SDS011;11875;49.356;2.718;2022-09-09T05:28:51;6.47;;;1.70;;
23404;SDS011;11875;49.356;2.718;2022-09-09T05:31:17;10.50;;;2.33;;
23404;SDS011;11875;49.356;2.718;2022-09-09T05:33:44;12.07;;;2.30;;
23404;SDS011;11875;49.356;2.718;2022-09-09T05:36:15;6.57;;;1.90;;
23404;SDS011;11875;49.356;2.718;2022-09-09T05:38:42;10.93;;;2.42;;
23404;SDS011;11875;49.356;2.718;2022-09-09T05:41:08;9.05;;;2.10;;
23404;SDS011;11875;49.356;2.718;2022-09-09T05:43:36;8.77;;;2.22;;
23404;SDS011;11875;49.356;2.718;2022-09-09T05:46:06;7.25;;;2.28;;
23404;SDS011;11875;49.356;2.718;2022-09-09T05:48:39;10.55;;;2.92;;
23404;SDS011;11875;49.356;2.718;2022-09-09T05:51:08;11.18;;;2.33;;
23404;SDS011;11875;49.356;2.718;2022-09-09T05:53:37;12.75;;;2.88;;
23404;SDS011;11875;49.356;2.718;2022-09-09T05:56:07;15.23;;;2.30;;
23404;SDS011;11875;49.356;2.718;2022-09-09T05:58:39;7.43;;;2.28;;
23404;SDS011;11875;49.356;2.718;2022-09-09T06:03:32;8.25;;;2.50;;
23404;SDS011;11875;49.356;2.718;2022-09-09T06:06:03;11.00;;;2.38;;
23404;SDS011;11875;49.356;2.718;2022-09-09T06:08:31;14.63;;;2.80;;
23404;SDS011;11875;49.356;2.718;2022-09-09T06:11:01;12.10;;;3.05;;
23404;SDS011;11875;49.356;2.718;2022-09-09T06:13:29;16.40;;;2.80;;
23404;SDS011;11875;49.356;2.718;2022-09-09T06:15:55;9.63;;;2.70;;
23404;SDS011;11875;49.356;2.718;2022-09-09T06:18:21;7.97;;;2.15;;
23404;SDS011;11875;49.356;2.718;2022-09-09T06:20:59;6.38;;;2.47;;
23404;SDS011;11875;49.356;2.718;2022-09-09T06:23:27;7.95;;;2.00;;
23404;SDS011;11875;49.356;2.718;2022-09-09T06:26:00;8.15;;;2.05;;
23404;SDS011;11875;49.356;2.718;2022-09-09T06:28:34;6.43;;;1.88;;
23404;SDS011;11875;49.356;2.718;2022-09-09T06:31:02;13.13;;;2.58;;
23404;SDS011;11875;49.356;2.718;2022-09-09T06:33:36;9.18;;;2.63;;
23404;SDS011;11875;49.356;2.718;2022-09-09T06:36:06;13.27;;;2.60;;
23404;SDS011;11875;49.356;2.718;2022-09-09T06:38:35;8.95;;;2.88;;
23404;SDS011;11875;49.356;2.718;2022-09-09T06:41:01;7.40;;;2.20;;
23404;SDS011;11875;49.356;2.718;2022-09-09T06:43:27;9.85;;;2.50;;
23404;SDS011;11875;49.356;2.718;2022-09-09T06:45:57;9.02;;;2.15;;
23404;SDS011;11875;49.356;2.718;2022-09-09T06:48:27;8.15;;;2.58;;
23404;SDS011;11875;49.356;2.718;2022-09-09T06:51:00;13.10;;;2.60;;
23404;SDS011;11875;49.356;2.718;2022-09-09T06:53:30;16.45;;;5.97;;
23404;SDS011;11875;49.356;2.718;2022-09-09T06:55:58;13.32;;;3.60;;
23404;SDS011;11875;49.356;2.718;2022-09-09T06:58:48;12.60;;;3.03;;
23404;SDS011;11875;49.356;2.718;2022-09-09T07:01:15;9.55;;;2.58;;
23404;SDS011;11875;49.356;2.718;2022-09-09T07:03:45;9.77;;;2.38;;
23404;SDS011;11875;49.356;2.718;2022-09-09T07:06:20;10.77;;;2.55;;
23404;SDS011;11875;49.356;2.718;2022-09-09T07:08:49;10.10;;;2.28;;
23404;SDS011;11875;49.356;2.718;2022-09-09T07:11:23;9.52;;;2.22;;
23404;SDS011;11875;49.356;2.718;2022-09-09T07:13:52;7.18;;;2.10;;
23404;SDS011;11875;49.356;2.718;2022-09-09T07:16:19;11.48;;;2.42;;
23404;SDS011;11875;49.356;2.718;2022-09-09T07:18:45;9.77;;;2.60;;
23404;SDS011;11875;49.356;2.718;2022-09-09T07:21:12;7.38;;;1.95;;
23404;SDS011;11875;49.356;2.718;2022-09-09T07:23:39;10.02;;;1.92;;
23404;SDS011;11875;49.356;2.718;2022-09-09T07:26:09;13.52;;;2.55;;
23404;SDS011;11875;49.356;2.718;2022-09-09T07:28:36;9.07;;;2.80;;
23404;SDS011;11875;49.356;2.718;2022-09-09T07:31:02;11.38;;;2.10;;
23404;SDS011;11875;49.356;2.718;2022-09-09T07:33:30;7.38;;;2.10;;
23404;SDS011;11875;49.356;2.718;2022-09-09T07:36:30;9.18;;;2.15;;
23404;SDS011;11875;49.356;2.718;2022-09-09T07:39:00;6.60;;;2.17;;
23404;SDS011;11875;49.356;2.718;2022-09-09T07:41:42;7.75;;;2.20;;
23404;SDS011;11875;49.356;2.718;2022-09-09T07:44:13;12.25;;;2.42;;
23404;SDS011;11875;49.356;2.718;2022-09-09T07:46:43;7.32;;;2.10;;
23404;SDS011;11875;49.356;2.718;2022-09-09T07:49:11;8.93;;;2.05;;
23404;SDS011;11875;49.356;2.718;2022-09-09T07:51:38;8.77;;;2.20;;
23404;SDS011;11875;49.356;2.718;2022-09-09T07:54:07;6.40;;;2.10;;
23404;SDS011;11875;49.356;2.718;2022-09-09T07:56:34;11.85;;;2.42;;
23404;SDS011;11875;49.356;2.718;2022-09-09T07:59:00;10.77;;;2.58;;
23404;SDS011;11875;49.356;2.718;2022-09-09T08:03:54;10.23;;;2.40;;
23404;SDS011;11875;49.356;2.718;2022-09-09T08:06:24;9.63;;;2.00;;
23404;SDS011;11875;49.356;2.718;2022-09-09T08:08:52;9.43;;;2.15;;
23404;SDS011;11875;49.356;2.718;2022-09-09T08:11:19;7.93;;;2.22;;
23404;SDS011;11875;49.356;2.718;2022-09-09T08:13:45;10.40;;;2.15;;
23404;SDS011;11875;49.356;2.718;2022-09-09T08:16:12;7.60;;;1.90;;
23404;SDS011;11875;49.356;2.718;2022-09-09T08:18:39;9.25;;;2.28;;
23404;SDS011;11875;49.356;2.718;2022-09-09T08:23:39;10.90;;;2.13;;
23404;SDS011;11875;49.356;2.718;2022-09-09T08:26:16;13.20;;;2.30;;
23404;SDS011;11875;49.356;2.718;2022-09-09T08:28:47;7.30;;;2.13;;
23404;SDS011;11875;49.356;2.718;2022-09-09T08:31:16;7.82;;;1.92;;
23404;SDS011;11875;49.356;2.718;2022-09-09T08:33:44;13.68;;;2.40;;
23404;SDS011;11875;49.356;2.718;2022-09-09T08:36:19;6.55;;;1.77;;
23404;SDS011;11875;49.356;2.718;2022-09-09T08:38:47;9.15;;;2.15;;
23404;SDS011;11875;49.356;2.718;2022-09-09T08:51:57;10.10;;;3.33;;
23404;SDS011;11875;49.356;2.718;2022-09-09T08:54:23;7.72;;;2.03;;
23404;SDS011;11875;49.356;2.718;2022-09-09T08:56:50;6.70;;;2.28;;
23404;SDS011;11875;49.356;2.718;2022-09-09T08:59:17;7.00;;;1.95;;
23404;SDS011;11875;49.356;2.718;2022-09-09T09:12:27;5.25;;;1.73;;
23404;SDS011;11875;49.356;2.718;2022-09-09T09:14:55;6.95;;;2.45;;
23404;SDS011;11875;49.356;2.718;2022-09-09T09:17:24;7.07;;;2.00;;
23404;SDS011;11875;49.356;2.718;2022-09-09T09:19:53;5.68;;;1.60;;
23404;SDS011;11875;49.356;2.718;2022-09-09T09:24:55;6.78;;;1.80;;
23404;SDS011;11875;49.356;2.718;2022-09-09T09:30:17;5.85;;;1.63;;
23404;SDS011;11875;49.356;2.718;2022-09-09T09:33:01;5.78;;;1.50;;
23404;SDS011;11875;49.356;2.718;2022-09-09T09:35:30;6.88;;;1.65;;
23404;SDS011;11875;49.356;2.718;2022-09-09T09:37:55;7.40;;;1.80;;
23404;SDS011;11875;49.356;2.718;2022-09-09T09:40:21;5.60;;;1.60;;
23404;SDS011;11875;49.356;2.718;2022-09-09T09:42:49;9.10;;;1.80;;
23404;SDS011;11875;49.356;2.718;2022-09-09T09:45:33;5.88;;;1.88;;
23404;SDS011;11875;49.356;2.718;2022-09-09T09:48:01;7.75;;;1.60;;
23404;SDS011;11875;49.356;2.718;2022-09-09T09:50:33;5.28;;;1.88;;
23404;SDS011;11875;49.356;2.718;2022-09-09T09:53:00;9.30;;;1.90;;
23404;SDS011;11875;49.356;2.718;2022-09-09T09:55:29;6.82;;;1.70;;
23404;SDS011;11875;49.356;2.718;2022-09-09T09:58:03;7.28;;;1.80;;
23404;SDS011;11875;49.356;2.718;2022-09-09T10:00:32;6.90;;;1.73;;
23404;SDS011;11875;49.356;2.718;2022-09-09T10:03:01;9.35;;;1.95;;
23404;SDS011;11875;49.356;2.718;2022-09-09T10:05:38;4.53;;;1.40;;
23404;SDS011;11875;49.356;2.718;2022-09-09T10:08:12;7.15;;;1.50;;
23404;SDS011;11875;49.356;2.718;2022-09-09T10:19:05;4.50;;;1.65;;
23404;SDS011;11875;49.356;2.718;2022-09-09T10:21:47;4.90;;;1.55;;
23404;SDS011;11875;49.356;2.718;2022-09-09T10:43:38;7.55;;;1.50;;
23404;SDS011;11875;49.356;2.718;2022-09-09T10:49:43;7.38;;;1.90;;
23404;SDS011;11875;49.356;2.718;2022-09-09T10:52:30;4.20;;;1.40;;
23404;SDS011;11875;49.356;2.718;2022-09-09T10:55:19;4.18;;;1.73;;
23404;SDS011;11875;49.356;2.718;2022-09-09T10:57:51;5.15;;;1.40;;
23404;SDS011;11875;49.356;2.718;2022-09-09T11:02:56;5.57;;;1.50;;
23404;SDS011;11875;49.356;2.718;2022-09-09T11:08:21;6.18;;;1.52;;
23404;SDS011;11875;49.356;2.718;2022-09-09T11:10:58;8.00;;;1.58;;
23404;SDS011;11875;49.356;2.718;2022-09-09T11:22:00;3.13;;;1.42;;
23404;SDS011;11875;49.356;2.718;2022-09-09T11:24:36;9.77;;;1.73;;
23404;SDS011;11875;49.356;2.718;2022-09-09T11:40:45;4.78;;;1.83;;
23404;SDS011;11875;49.356;2.718;2022-09-09T11:43:15;5.95;;;2.00;;
23404;SDS011;11875;49.356;2.718;2022-09-09T11:45:50;7.38;;;2.03;;
23404;SDS011;11875;49.356;2.718;2022-09-09T11:48:26;8.10;;;2.25;;
23404;SDS011;11875;49.356;2.718;2022-09-09T11:50:57;7.78;;;1.77;;
23404;SDS011;11875;49.356;2.718;2022-09-09T11:53:35;10.82;;;2.25;;
23404;SDS011;11875;49.356;2.718;2022-09-09T11:56:13;8.07;;;2.38;;
23404;SDS011;11875;49.356;2.718;2022-09-09T11:59:23;11.57;;;2.53;;
23404;SDS011;11875;49.356;2.718;2022-09-09T12:06:57;15.60;;;2.97;;
23404;SDS011;11875;49.356;2.718;2022-09-09T12:09:55;8.45;;;2.72;;
23404;SDS011;11875;49.356;2.718;2022-09-09T12:12:32;6.60;;;1.90;;
23404;SDS011;11875;49.356;2.718;2022-09-09T12:17:29;4.65;;;2.10;;
23404;SDS011;11875;49.356;2.718;2022-09-09T12:20:00;7.82;;;2.47;;
23404;SDS011;11875;49.356;2.718;2022-09-09T12:33:13;5.40;;;2.00;;
23404;SDS011;11875;49.356;2.718;2022-09-09T12:35:41;6.28;;;2.15;;
23404;SDS011;11875;49.356;2.718;2022-09-09T12:38:12;6.10;;;2.00;;
23404;SDS011;11875;49.356;2.718;2022-09-09T12:40:53;6.30;;;2.50;;
23404;SDS011;11875;49.356;2.718;2022-09-09T12:43:21;5.40;;;1.85;;
23404;SDS011;11875;49.356;2.718;2022-09-09T12:45:47;6.43;;;2.05;;
23404;SDS011;11875;49.356;2.718;2022-09-09T12:48:21;5.63;;;1.92;;
23404;SDS011;11875;49.356;2.718;2022-09-09T12:50:52;6.57;;;1.75;;
23404;SDS011;11875;49.356;2.718;2022-09-09T12:53:23;3.45;;;1.60;;
23404;SDS011;11875;49.356;2.718;2022-09-09T12:58:31;4.45;;;1.80;;
23404;SDS011;11875;49.356;2.718;2022-09-09T13:00:58;6.00;;;1.95;;
23404;SDS011;11875;49.356;2.718;2022-09-09T13:03:24;6.10;;;1.95;;
23404;SDS011;11875;49.356;2.718;2022-09-09T13:05:51;8.27;;;2.30;;
23404;SDS011;11875;49.356;2.718;2022-09-09T13:08:18;5.80;;;1.80;;
23404;SDS011;11875;49.356;2.718;2022-09-09T13:10:51;6.88;;;1.95;;
23404;SDS011;11875;49.356;2.718;2022-09-09T13:13:26;5.68;;;1.70;;
23404;SDS011;11875;49.356;2.718;2022-09-09T13:15:56;4.72;;;1.58;;
23404;SDS011;11875;49.356;2.718;2022-09-09T13:18:24;7.10;;;2.20;;
23404;SDS011;11875;49.356;2.718;2022-09-09T13:20:53;4.10;;;1.83;;
23404;SDS011;11875;49.356;2.718;2022-09-09T13:23:20;5.90;;;1.95;;
23404;SDS011;11875;49.356;2.718;2022-09-09T13:25:53;9.82;;;1.83;;
23404;SDS011;11875;49.356;2.718;2022-09-09T13:28:29;6.47;;;2.38;;
23404;SDS011;11875;49.356;2.718;2022-09-09T13:31:05;5.05;;;1.75;;
23404;SDS011;11875;49.356;2.718;2022-09-09T13:33:45;4.72;;;1.90;;
23404;SDS011;11875;49.356;2.718;2022-09-09T13:36:11;7.15;;;1.95;;
23404;SDS011;11875;49.356;2.718;2022-09-09T13:41:21;7.20;;;1.85;;
23404;SDS011;11875;49.356;2.718;2022-09-09T13:43:48;6.60;;;1.88;;
23404;SDS011;11875;49.356;2.718;2022-09-09T13:51:39;4.45;;;1.98;;
23404;SDS011;11875;49.356;2.718;2022-09-09T13:54:08;4.85;;;1.60;;
23404;SDS011;11875;49.356;2.718;2022-09-09T13:56:35;5.60;;;1.75;;
23404;SDS011;11875;49.356;2.718;2022-09-09T13:59:04;5.13;;;1.65;;
23404;SDS011;11875;49.356;2.718;2022-09-09T14:01:30;5.05;;;1.35;;
23404;SDS011;11875;49.356;2.718;2022-09-09T14:03:56;4.55;;;1.70;;
23404;SDS011;11875;49.356;2.718;2022-09-09T14:06:22;4.32;;;1.40;;
23404;SDS011;11875;49.356;2.718;2022-09-09T14:08:51;5.35;;;1.70;;
23404;SDS011;11875;49.356;2.718;2022-09-09T14:11:17;6.30;;;1.92;;
23404;SDS011;11875;49.356;2.718;2022-09-09T14:13:44;6.80;;;1.80;;
23404;SDS011;11875;49.356;2.718;2022-09-09T14:16:09;6.50;;;1.70;;
23404;SDS011;11875;49.356;2.718;2022-09-09T14:18:35;5.03;;;1.67;;
23404;SDS011;11875;49.356;2.718;2022-09-09T14:21:02;5.95;;;1.50;;
23404;SDS011;11875;49.356;2.718;2022-09-09T14:23:28;3.72;;;1.65;;
23404;SDS011;11875;49.356;2.718;2022-09-09T14:25:54;6.63;;;1.75;;
23404;SDS011;11875;49.356;2.718;2022-09-09T14:28:20;5.03;;;1.50;;
23404;SDS011;11875;49.356;2.718;2022-09-09T14:30:46;5.97;;;1.60;;
23404;SDS011;11875;49.356;2.718;2022-09-09T14:33:13;4.40;;;1.30;;
23404;SDS011;11875;49.356;2.718;2022-09-09T14:35:40;5.90;;;1.52;;
23404;SDS011;11875;49.356;2.718;2022-09-09T14:38:07;5.40;;;1.48;;
23404;SDS011;11875;49.356;2.718;2022-09-09T14:40:33;5.05;;;1.20;;
23404;SDS011;11875;49.356;2.718;2022-09-09T14:43:00;8.52;;;1.90;;
23404;SDS011;11875;49.356;2.718;2022-09-09T14:45:27;4.22;;;1.65;;
23404;SDS011;11875;49.356;2.718;2022-09-09T14:47:53;4.80;;;1.52;;
23404;SDS011;11875;49.356;2.718;2022-09-09T14:50:19;4.18;;;1.40;;
23404;SDS011;11875;49.356;2.718;2022-09-09T14:52:46;6.60;;;2.00;;
23404;SDS011;11875;49.356;2.718;2022-09-09T14:55:11;2.05;;;1.20;;
23404;SDS011;11875;49.356;2.718;2022-09-09T14:57:37;4.00;;;1.17;;
23404;SDS011;11875;49.356;2.718;2022-09-09T15:00:04;2.65;;;0.88;;
23404;SDS011;11875;49.356;2.718;2022-09-09T15:02:30;5.03;;;1.30;;
23404;SDS011;11875;49.356;2.718;2022-09-09T15:04:56;7.28;;;1.77;;
23404;SDS011;11875;49.356;2.718;2022-09-09T15:07:23;2.30;;;1.17;;
23404;SDS011;11875;49.356;2.718;2022-09-09T15:09:49;2.80;;;1.10;;
23404;SDS011;11875;49.356;2.718;2022-09-09T15:12:15;5.53;;;1.30;;
23404;SDS011;11875;49.356;2.718;2022-09-09T15:14:43;4.13;;;1.48;;
23404;SDS011;11875;49.356;2.718;2022-09-09T15:17:09;2.83;;;1.05;;
23404;SDS011;11875;49.356;2.718;2022-09-09T15:19:35;4.05;;;1.17;;
23404;SDS011;11875;49.356;2.718;2022-09-09T15:22:01;2.97;;;1.33;;
23404;SDS011;11875;49.356;2.718;2022-09-09T15:24:28;2.63;;;1.02;;
23404;SDS011;11875;49.356;2.718;2022-09-09T15:26:53;5.80;;;1.30;;
23404;SDS011;11875;49.356;2.718;2022-09-09T15:29:19;2.70;;;1.42;;
23404;SDS011;11875;49.356;2.718;2022-09-09T15:31:45;1.77;;;1.33;;
23404;SDS011;11875;49.356;2.718;2022-09-09T15:34:11;2.88;;;1.20;;
23404;SDS011;11875;49.356;2.718;2022-09-09T15:36:45;3.85;;;1.20;;
23404;SDS011;11875;49.356;2.718;2022-09-09T15:39:14;4.13;;;1.40;;
23404;SDS011;11875;49.356;2.718;2022-09-09T15:41:42;4.22;;;1.52;;
23404;SDS011;11875;49.356;2.718;2022-09-09T15:44:12;2.33;;;0.98;;
23404;SDS011;11875;49.356;2.718;2022-09-09T15:46:45;3.85;;;1.13;;
23404;SDS011;11875;49.356;2.718;2022-09-09T15:49:16;2.38;;;0.80;;
23404;SDS011;11875;49.356;2.718;2022-09-09T15:51:51;2.22;;;1.02;;
23404;SDS011;11875;49.356;2.718;2022-09-09T15:54:19;6.57;;;2.08;;
23404;SDS011;11875;49.356;2.718;2022-09-09T15:56:50;5.90;;;1.38;;
23404;SDS011;11875;49.356;2.718;2022-09-09T15:59:17;2.97;;;1.10;;
23404;SDS011;11875;49.356;2.718;2022-09-09T16:01:43;1.88;;;0.90;;
23404;SDS011;11875;49.356;2.718;2022-09-09T16:04:09;5.45;;;1.10;;
23404;SDS011;11875;49.356;2.718;2022-09-09T16:06:36;3.60;;;1.30;;
23404;SDS011;11875;49.356;2.718;2022-09-09T16:09:03;3.00;;;1.00;;
23404;SDS011;11875;49.356;2.718;2022-09-09T16:11:30;2.25;;;0.70;;
23404;SDS011;11875;49.356;2.718;2022-09-09T16:13:58;2.30;;;0.90;;
23404;SDS011;11875;49.356;2.718;2022-09-09T16:16:25;2.72;;;1.05;;
23404;SDS011;11875;49.356;2.718;2022-09-09T16:18:53;1.60;;;1.08;;
23404;SDS011;11875;49.356;2.718;2022-09-09T16:23:53;2.60;;;1.15;;
23404;SDS011;11875;49.356;2.718;2022-09-09T16:26:19;1.55;;;0.85;;
23404;SDS011;11875;49.356;2.718;2022-09-09T16:28:45;6.13;;;1.30;;
23404;SDS011;11875;49.356;2.718;2022-09-09T16:31:13;3.63;;;1.13;;
23404;SDS011;11875;49.356;2.718;2022-09-09T16:33:41;2.85;;;0.95;;
23404;SDS011;11875;49.356;2.718;2022-09-09T16:36:08;2.13;;;0.90;;
23404;SDS011;11875;49.356;2.718;2022-09-09T16:38:35;2.92;;;1.17;;
23404;SDS011;11875;49.356;2.718;2022-09-09T16:41:02;2.55;;;1.27;;
23404;SDS011;11875;49.356;2.718;2022-09-09T16:43:30;4.22;;;1.20;;
23404;SDS011;11875;49.356;2.718;2022-09-09T16:46:00;3.70;;;1.33;;
23404;SDS011;11875;49.356;2.718;2022-09-09T16:48:27;7.00;;;1.10;;
23404;SDS011;11875;49.356;2.718;2022-09-09T16:51:06;5.13;;;1.20;;
23404;SDS011;11875;49.356;2.718;2022-09-09T16:53:36;4.40;;;1.40;;
23404;SDS011;11875;49.356;2.718;2022-09-09T16:56:09;6.35;;;1.50;;
23404;SDS011;11875;49.356;2.718;2022-09-09T16:58:39;4.00;;;0.95;;
23404;SDS011;11875;49.356;2.718;2022-09-09T17:01:05;5.13;;;1.63;;
23404;SDS011;11875;49.356;2.718;2022-09-09T17:03:31;3.83;;;1.10;;
23404;SDS011;11875;49.356;2.718;2022-09-09T17:05:57;3.85;;;1.35;;
23404;SDS011;11875;49.356;2.718;2022-09-09T17:08:27;2.75;;;1.45;;
23404;SDS011;11875;49.356;2.718;2022-09-09T17:10:54;4.22;;;1.13;;
23404;SDS011;11875;49.356;2.718;2022-09-09T17:13:19;5.28;;;1.58;;
23404;SDS011;11875;49.356;2.718;2022-09-09T17:15:45;3.17;;;1.27;;
23404;SDS011;11875;49.356;2.718;2022-09-09T17:18:11;4.82;;;1.55;;
23404;SDS011;11875;49.356;2.718;2022-09-09T17:20:40;6.40;;;1.60;;
23404;SDS011;11875;49.356;2.718;2022-09-09T17:23:07;3.88;;;1.35;;
23404;SDS011;11875;49.356;2.718;2022-09-09T17:25:34;3.55;;;1.40;;
23404;SDS011;11875;49.356;2.718;2022-09-09T17:28:03;5.68;;;1.45;;
23404;SDS011;11875;49.356;2.718;2022-09-09T17:30:35;2.78;;;1.30;;
23404;SDS011;11875;49.356;2.718;2022-09-09T17:33:02;4.22;;;1.48;;
23404;SDS011;11875;49.356;2.718;2022-09-09T17:35:29;2.97;;;1.42;;
23404;SDS011;11875;49.356;2.718;2022-09-09T17:37:55;4.45;;;1.52;;
23404;SDS011;11875;49.356;2.718;2022-09-09T17:40:21;4.70;;;1.55;;
23404;SDS011;11875;49.356;2.718;2022-09-09T17:42:47;8.32;;;1.40;;
23404;SDS011;11875;49.356;2.718;2022-09-09T17:45:13;4.90;;;1.60;;
23404;SDS011;11875;49.356;2.718;2022-09-09T17:47:39;3.80;;;1.40;;
23404;SDS011;11875;49.356;2.718;2022-09-09T17:50:08;5.53;;;1.38;;
23404;SDS011;11875;49.356;2.718;2022-09-09T17:52:34;3.70;;;1.20;;
23404;SDS011;11875;49.356;2.718;2022-09-09T17:55:00;8.30;;;1.73;;
23404;SDS011;11875;49.356;2.718;2022-09-09T17:57:25;2.95;;;1.65;;
23404;SDS011;11875;49.356;2.718;2022-09-09T17:59:51;2.33;;;1.10;;